Time;durP1;ratioP1;P1;durP2;ratioP2;P2;SDS_P1;SDS_P2;PMS_P1;PMS_P2;Temp;Humidity;BMP_temperature;BMP_pressure;BME280_temperature;BME280_humidity;BME280_pressure;Samples;Min_cycle;Max_cycle;Signal;HPM_P1;HPM_P2
2022/01/26 00:00:43;;;;;;;75.68;24.27;;;3.00;99.90;;;;;;4951708;28;20051;-79
2022/01/26 00:06:01;;;;;;;71.65;22.17;;;2.90;99.90;;;;;;4953721;29;20050;-79
2022/01/26 00:08:26;;;;;;;65.03;21.63;;;2.90;99.90;;;;;;4952118;29;20039;-79
2022/01/26 00:10:52;;;;;;;69.95;21.80;;;2.90;99.90;;;;;;4951259;29;20043;-79
2022/01/26 00:13:17;;;;;;;66.43;22.50;;;2.90;99.90;;;;;;4951543;29;20479;-79
2022/01/26 00:15:43;;;;;;;69.28;21.92;;;2.90;99.90;;;;;;4952453;29;20047;-79
2022/01/26 00:18:09;;;;;;;69.80;21.27;;;2.90;99.90;;;;;;4953749;29;20097;-79
2022/01/26 00:20:44;;;;;;;62.53;20.48;;;2.90;99.90;;;;;;4952397;29;20043;-79
2022/01/26 00:38:45;;;;;;;66.95;22.80;;;2.80;99.90;;;;;;4957066;29;20066;-79
2022/01/26 00:41:15;;;;;;;72.15;21.48;;;2.80;99.90;;;;;;4955198;29;20047;-79
2022/01/26 00:43:47;;;;;;;65.72;20.92;;;2.70;99.90;;;;;;4954661;29;20039;-79
2022/01/26 00:46:13;;;;;;;70.85;21.83;;;2.70;99.90;;;;;;4955641;29;20044;-79
2022/01/26 00:48:39;;;;;;;76.00;23.73;;;2.70;99.90;;;;;;4955574;29;20170;-79
2022/01/26 00:51:06;;;;;;;72.85;22.45;;;2.80;99.90;;;;;;4955449;29;20071;-79
2022/01/26 00:53:37;;;;;;;73.72;22.98;;;2.70;99.90;;;;;;4938677;29;20041;-79
2022/01/26 00:56:04;;;;;;;75.90;21.17;;;2.80;99.90;;;;;;4955304;29;20039;-79
2022/01/26 00:58:31;;;;;;;61.97;19.23;;;2.70;99.90;;;;;;4954235;29;20043;-79
2022/01/26 01:00:59;;;;;;;75.75;22.50;;;2.70;99.90;;;;;;4954926;29;20043;-79
2022/01/26 01:03:25;;;;;;;76.50;23.65;;;2.70;99.90;;;;;;4956107;29;20044;-79
2022/01/26 01:05:57;;;;;;;68.28;20.15;;;2.70;99.90;;;;;;4955089;29;20051;-79
2022/01/26 01:08:25;;;;;;;66.75;19.67;;;2.60;99.90;;;;;;4954169;29;20490;-79
2022/01/26 01:10:52;;;;;;;70.10;22.10;;;2.60;99.90;;;;;;4953750;29;20130;-79
2022/01/26 01:13:22;;;;;;;63.22;20.17;;;2.60;99.90;;;;;;4956441;28;20528;-79
2022/01/26 01:15:49;;;;;;;67.10;19.67;;;2.60;99.90;;;;;;4959019;28;20047;-79
2022/01/26 01:21:21;;;;;;;67.90;21.95;;;2.60;99.90;;;;;;4958392;29;20507;-79
2022/01/26 01:31:46;;;;;;;67.20;21.20;;;2.60;99.90;;;;;;4955325;29;20054;-78
2022/01/26 01:34:14;;;;;;;55.20;18.70;;;2.60;99.90;;;;;;4938691;29;20525;-78
2022/01/26 01:36:42;;;;;;;62.88;19.10;;;2.70;99.90;;;;;;4955056;29;20039;-78
2022/01/26 01:39:09;;;;;;;70.90;21.75;;;2.60;99.90;;;;;;4954398;29;20164;-78
2022/01/26 01:41:36;;;;;;;69.57;21.95;;;2.60;99.90;;;;;;4955223;29;20043;-78
2022/01/26 01:44:04;;;;;;;63.75;20.92;;;2.60;99.90;;;;;;4954400;29;20511;-79
2022/01/26 01:46:29;;;;;;;69.93;21.52;;;2.60;99.90;;;;;;4954154;29;20043;-78
2022/01/26 01:48:55;;;;;;;66.40;21.35;;;2.70;99.90;;;;;;4954931;29;20050;-78
2022/01/26 01:51:27;;;;;;;66.80;21.25;;;2.70;99.90;;;;;;4954617;29;20146;-78
2022/01/26 01:53:53;;;;;;;;;;;2.70;99.90;;;;;;4955179;29;20047;-78
2022/01/26 01:56:22;;;;;;;70.32;22.05;;;2.70;99.90;;;;;;4953694;29;20278;-78
2022/01/26 01:58:48;;;;;;;68.07;21.75;;;2.70;99.90;;;;;;4954763;29;20664;-78
2022/01/26 02:01:14;;;;;;;69.65;20.77;;;2.70;99.90;;;;;;4954185;29;20172;-78
2022/01/26 02:03:39;;;;;;;66.32;21.83;;;2.70;99.90;;;;;;4938816;29;20422;-78
2022/01/26 02:06:05;;;;;;;66.53;21.15;;;2.70;99.90;;;;;;4953600;29;20517;-78
2022/01/26 02:08:30;;;;;;;69.28;22.88;;;2.70;99.90;;;;;;4954700;29;20182;-78
2022/01/26 02:10:56;;;;;;;66.35;20.52;;;2.60;99.90;;;;;;4937792;29;20366;-79
2022/01/26 02:13:29;;;;;;;75.97;22.08;;;2.70;99.90;;;;;;4954091;29;20035;-79
2022/01/26 02:21:30;;;;;;;68.75;20.73;;;2.60;99.90;;;;;;4954099;29;20541;-79
2022/01/26 02:54:11;;;;;;;70.28;23.90;;;2.50;99.90;;;;;;4954110;29;20143;-79
2022/01/26 03:02:01;;;;;;;66.40;22.30;;;2.40;99.90;;;;;;4954077;29;20051;-79
2022/01/26 03:04:35;;;;;;;75.60;22.95;;;2.50;99.90;;;;;;4952973;29;20419;-79
2022/01/26 03:07:21;;;;;;;68.22;22.48;;;2.50;99.90;;;;;;4953392;29;20069;-79
2022/01/26 03:09:55;;;;;;;73.85;21.77;;;2.50;99.90;;;;;;4953143;29;20097;-78
2022/01/26 03:12:32;;;;;;;73.25;20.75;;;2.40;99.90;;;;;;4953232;29;20039;-78
2022/01/26 03:15:06;;;;;;;68.47;20.30;;;2.40;99.90;;;;;;4953184;29;20530;-78
2022/01/26 03:20:16;;;;;;;78.32;22.67;;;2.40;99.90;;;;;;4954240;29;20095;-80
2022/01/26 03:35:51;;;;;;;74.53;22.00;;;2.40;99.90;;;;;;4952380;28;20133;-80
2022/01/26 03:38:38;;;;;;;61.45;19.77;;;2.40;99.90;;;;;;4953762;29;20498;-80
2022/01/26 03:41:28;;;;;;;75.95;22.92;;;2.40;99.90;;;;;;4952794;29;20090;-80
2022/01/26 03:43:53;;;;;;;76.78;23.30;;;2.30;99.90;;;;;;4952554;29;20054;-80
2022/01/26 03:46:19;;;;;;;74.30;20.73;;;2.30;99.90;;;;;;4953088;29;20035;-81
2022/01/26 03:48:44;;;;;;;75.03;22.25;;;2.30;99.90;;;;;;4953374;29;20051;-80
2022/01/26 03:51:10;;;;;;;65.32;20.55;;;2.30;99.90;;;;;;4953167;29;20071;-80
2022/01/26 03:53:35;;;;;;;73.53;21.58;;;2.30;99.90;;;;;;4952450;29;20043;-80
2022/01/26 03:56:01;;;;;;;72.13;22.83;;;2.30;99.90;;;;;;4955875;28;20039;-81
2022/01/26 03:58:27;;;;;;;70.15;20.65;;;2.40;99.90;;;;;;4956658;29;20046;-81
2022/01/26 04:00:52;;;;;;;82.32;24.48;;;2.40;99.90;;;;;;4957762;29;20107;-82
2022/01/26 04:03:18;;;;;;;81.75;24.75;;;2.40;99.90;;;;;;4957525;28;20050;-82
2022/01/26 04:05:43;;;;;;;70.07;21.55;;;2.30;99.90;;;;;;4955269;29;20050;-82
2022/01/26 04:08:15;;;;;;;75.85;22.95;;;2.40;99.90;;;;;;4953016;29;20130;-82
2022/01/26 04:13:12;;;;;;;72.60;21.08;;;2.30;99.90;;;;;;4953309;29;20051;-82
2022/01/26 04:15:38;;;;;;;76.40;21.67;;;2.40;99.90;;;;;;4952932;29;20051;-82
2022/01/26 04:18:07;;;;;;;73.75;21.98;;;2.40;99.90;;;;;;4941194;29;20043;-81
2022/01/26 04:20:38;;;;;;;62.33;19.65;;;2.40;99.90;;;;;;4957267;29;20058;-81
2022/01/26 04:23:16;;;;;;;68.80;20.85;;;2.40;99.90;;;;;;4957854;29;20057;-82
2022/01/26 04:25:44;;;;;;;70.28;20.23;;;2.40;99.90;;;;;;4954961;29;20094;-82
2022/01/26 04:28:15;;;;;;;70.25;21.75;;;2.40;99.90;;;;;;4956046;29;20043;-82
2022/01/26 04:30:41;;;;;;;71.35;23.27;;;2.40;99.90;;;;;;4940442;29;20047;-82
2022/01/26 04:33:07;;;;;;;77.13;19.77;;;2.40;99.90;;;;;;4956868;29;20107;-82
2022/01/26 04:35:34;;;;;;;63.85;19.52;;;2.40;99.90;;;;;;4940891;29;20487;-81
2022/01/26 04:38:15;;;;;;;78.30;22.05;;;2.40;99.90;;;;;;4956650;29;20047;-81
2022/01/26 04:43:29;;;;;;;69.72;21.90;;;2.40;99.90;;;;;;4955054;29;20477;-81
2022/01/26 04:45:55;;;;;;;69.45;20.85;;;2.40;99.90;;;;;;4956779;29;20056;-82
2022/01/26 04:48:20;;;;;;;72.35;21.83;;;2.40;99.90;;;;;;4959223;28;20051;-82
2022/01/26 04:50:47;;;;;;;77.93;20.45;;;2.30;99.90;;;;;;4945676;29;20050;-82
2022/01/26 04:53:12;;;;;;;66.20;17.80;;;2.30;99.90;;;;;;4943607;29;20135;-81
2022/01/26 04:55:38;;;;;;;69.28;19.17;;;2.30;99.90;;;;;;4943238;29;20102;-81
2022/01/26 04:58:03;;;;;;;69.88;20.17;;;2.40;99.90;;;;;;4960426;29;20043;-81
2022/01/26 05:00:29;;;;;;;65.57;19.95;;;2.40;99.90;;;;;;4960267;29;20562;-81
2022/01/26 05:02:55;;;;;;;60.17;20.27;;;2.40;99.90;;;;;;4960380;29;20077;-82
2022/01/26 05:05:20;;;;;;;67.95;20.33;;;2.30;99.90;;;;;;4942201;29;20126;-82
2022/01/26 05:07:46;;;;;;;68.47;19.48;;;2.40;99.90;;;;;;4959122;29;20058;-82
2022/01/26 05:10:13;;;;;;;73.15;22.52;;;2.30;99.90;;;;;;4958731;29;20063;-81
2022/01/26 05:12:39;;;;;;;63.05;18.27;;;2.30;99.90;;;;;;4959660;29;20391;-82
2022/01/26 05:15:05;;;;;;;63.20;17.80;;;2.30;99.90;;;;;;4960070;29;20039;-82
2022/01/26 05:17:31;;;;;;;67.63;19.33;;;2.40;99.90;;;;;;4959555;29;20107;-81
2022/01/26 05:19:59;;;;;;;57.47;18.52;;;2.40;99.90;;;;;;4960468;29;20090;-82
2022/01/26 05:22:25;;;;;;;56.90;18.00;;;2.40;99.90;;;;;;4961120;28;20391;-81
2022/01/26 05:24:52;;;;;;;62.17;16.75;;;2.40;99.90;;;;;;4959898;29;20043;-81
2022/01/26 05:27:18;;;;;;;67.68;17.48;;;2.40;99.90;;;;;;4959130;29;20434;-80
2022/01/26 05:29:44;;;;;;;52.35;15.95;;;2.40;99.90;;;;;;4959284;29;20046;-81
2022/01/26 05:32:10;;;;;;;65.93;19.48;;;2.40;99.90;;;;;;4960968;29;20123;-82
2022/01/26 05:34:35;;;;;;;56.25;16.95;;;2.40;99.90;;;;;;4946065;29;20043;-81
2022/01/26 05:37:01;;;;;;;52.80;14.98;;;2.40;99.90;;;;;;4945808;29;20118;-81
2022/01/26 05:39:26;;;;;;;50.70;15.73;;;2.40;99.90;;;;;;4961478;29;20114;-82
2022/01/26 05:41:52;;;;;;;61.95;18.17;;;2.40;99.90;;;;;;4957992;29;20485;-82
2022/01/26 05:44:17;;;;;;;50.13;15.23;;;2.40;99.90;;;;;;4942461;29;20434;-83
2022/01/26 05:46:47;;;;;;;51.67;14.40;;;2.40;99.90;;;;;;4939055;29;20486;-84
2022/01/26 05:49:13;;;;;;;54.47;15.07;;;2.40;99.90;;;;;;4940725;29;20402;-82
2022/01/26 05:51:40;;;;;;;46.90;15.68;;;2.40;99.90;;;;;;4956142;29;20087;-81
2022/01/26 05:54:07;;;;;;;56.38;15.55;;;2.40;99.90;;;;;;4959769;29;20070;-80
2022/01/26 05:56:33;;;;;;;49.63;15.50;;;2.30;99.90;;;;;;4944917;29;20038;-81
2022/01/26 05:58:59;;;;;;;52.15;15.88;;;2.40;99.90;;;;;;4940597;29;20144;-80
2022/01/26 06:01:25;;;;;;;51.58;14.85;;;2.40;99.90;;;;;;4940799;29;20164;-81
2022/01/26 06:03:51;;;;;;;49.95;16.45;;;2.30;99.90;;;;;;4940151;29;20522;-80
2022/01/26 06:06:17;;;;;;;55.65;15.30;;;2.40;99.90;;;;;;4941746;29;20043;-81
2022/01/26 06:08:42;;;;;;;53.78;16.33;;;2.40;99.90;;;;;;4956130;29;20047;-82
2022/01/26 06:11:08;;;;;;;49.03;14.95;;;2.40;99.90;;;;;;4941512;29;20498;-80
2022/01/26 06:13:34;;;;;;;53.33;16.33;;;2.40;99.90;;;;;;4941640;29;20167;-81
2022/01/26 06:15:59;;;;;;;50.45;15.50;;;2.40;99.90;;;;;;4956501;29;20058;-82
2022/01/26 06:18:25;;;;;;;50.35;15.20;;;2.40;99.90;;;;;;4939334;29;20047;-82
2022/01/26 06:20:51;;;;;;;50.28;14.43;;;2.40;99.90;;;;;;4939254;29;20053;-82
2022/01/26 06:23:17;;;;;;;45.55;12.95;;;2.40;99.90;;;;;;4957482;29;20035;-81
2022/01/26 06:25:43;;;;;;;51.65;14.25;;;2.40;99.90;;;;;;4955693;29;20601;-82
2022/01/26 06:28:12;;;;;;;43.33;12.93;;;2.40;99.90;;;;;;4941313;29;20051;-82
2022/01/26 06:30:39;;;;;;;53.97;15.05;;;2.40;99.90;;;;;;4954740;29;20055;-81
2022/01/26 06:33:06;;;;;;;53.42;14.18;;;2.40;99.90;;;;;;4956440;29;20046;-82
2022/01/26 06:35:34;;;;;;;53.83;15.30;;;2.40;99.90;;;;;;4956437;29;20179;-82
2022/01/26 06:38:00;;;;;;;49.85;14.23;;;2.40;99.90;;;;;;4957114;29;20043;-82
2022/01/26 06:40:26;;;;;;;49.83;16.42;;;2.40;99.90;;;;;;4956983;29;20406;-82
2022/01/26 06:42:55;;;;;;;50.35;14.52;;;2.40;99.90;;;;;;4957627;29;20619;-83
2022/01/26 06:45:24;;;;;;;46.35;15.52;;;2.50;99.90;;;;;;4953329;29;20521;-84
2022/01/26 06:47:59;;;;;;;46.95;13.30;;;2.50;99.90;;;;;;4955132;29;20514;-82
2022/01/26 06:50:25;;;;;;;47.38;14.55;;;2.40;99.90;;;;;;4954235;29;20098;-80
2022/01/26 06:52:50;;;;;;;52.53;15.45;;;2.40;99.90;;;;;;4953610;29;20047;-80
2022/01/26 06:55:17;;;;;;;47.75;13.80;;;2.50;99.90;;;;;;4952203;29;20074;-81
2022/01/26 06:57:43;;;;;;;49.80;14.25;;;2.50;99.90;;;;;;4952318;29;20071;-80
2022/01/26 07:00:10;;;;;;;49.58;14.60;;;2.50;99.90;;;;;;4952610;29;20521;-79
2022/01/26 07:02:39;;;;;;;52.08;15.15;;;2.50;99.90;;;;;;4952443;29;20051;-78
2022/01/26 07:05:10;;;;;;;49.10;15.68;;;2.40;99.90;;;;;;4952285;29;20383;-78
2022/01/26 07:07:36;;;;;;;57.30;15.98;;;2.50;99.90;;;;;;4952514;29;20047;-78
2022/01/26 07:10:03;;;;;;;51.17;14.05;;;2.50;99.90;;;;;;4952092;28;20098;-79
2022/01/26 07:12:29;;;;;;;58.00;15.30;;;2.50;99.90;;;;;;4953402;29;20043;-79
2022/01/26 07:23:07;;;;;;;53.38;16.27;;;2.50;99.90;;;;;;4953448;29;20083;-79
2022/01/26 07:25:33;;;;;;;47.97;15.57;;;2.60;99.90;;;;;;4953210;29;20043;-79
2022/01/26 07:28:02;;;;;;;48.90;14.65;;;2.60;99.90;;;;;;4953372;29;20109;-79
2022/01/26 07:30:28;;;;;;;56.70;17.40;;;2.60;99.90;;;;;;4953209;29;20430;-78
2022/01/26 07:32:54;;;;;;;56.92;16.67;;;2.60;99.90;;;;;;4953339;29;20043;-79
2022/01/26 07:35:19;;;;;;;55.15;16.92;;;2.60;99.90;;;;;;4954565;28;20047;-78
2022/01/26 07:37:45;;;;;;;59.40;17.67;;;2.60;99.90;;;;;;4953217;29;20467;-79
2022/01/26 07:40:13;;;;;;;49.33;17.00;;;2.60;99.90;;;;;;4953966;29;20047;-78
2022/01/26 07:42:39;;;;;;;58.38;18.38;;;2.60;99.90;;;;;;4953317;29;20098;-78
2022/01/26 07:45:10;;;;;;;51.08;18.73;;;2.60;99.90;;;;;;4953128;29;20051;-78
2022/01/26 07:47:37;;;;;;;72.43;19.77;;;2.60;99.90;;;;;;4955636;29;20487;-81
2022/01/26 07:50:07;;;;;;;64.47;19.63;;;2.60;99.90;;;;;;4955903;29;20090;-81
2022/01/26 07:52:37;;;;;;;62.85;20.42;;;2.60;99.90;;;;;;4955998;29;20395;-81
2022/01/26 07:55:04;;;;;;;63.47;20.20;;;2.70;99.90;;;;;;4955314;29;20035;-81
2022/01/26 07:57:30;;;;;;;71.80;23.40;;;2.60;99.90;;;;;;4938277;29;20050;-81
2022/01/26 07:59:55;;;;;;;65.30;22.60;;;2.70;99.90;;;;;;4956316;29;20039;-81
2022/01/26 08:02:21;;;;;;;56.30;21.75;;;2.70;99.90;;;;;;4958445;29;20106;-81
2022/01/26 08:04:47;;;;;;;71.22;23.65;;;2.70;99.90;;;;;;4941031;29;20153;-81
2022/01/26 08:07:13;;;;;;;73.50;23.92;;;2.70;99.90;;;;;;4956353;29;20519;-81
2022/01/26 08:09:43;;;;;;;75.75;25.45;;;2.70;99.90;;;;;;4955147;29;20042;-81
2022/01/26 08:12:17;;;;;;;83.95;25.45;;;2.70;99.90;;;;;;4940927;29;20410;-81
2022/01/26 08:14:43;;;;;;;85.88;27.83;;;2.70;99.90;;;;;;4955550;29;20050;-81
2022/01/26 08:17:09;;;;;;;90.95;29.33;;;2.80;99.90;;;;;;4954737;29;20093;-81
2022/01/26 08:19:36;;;;;;;85.10;28.73;;;2.70;99.90;;;;;;4956368;29;20040;-81
2022/01/26 08:22:03;;;;;;;99.03;31.67;;;2.80;99.90;;;;;;4938303;29;20047;-81
2022/01/26 08:24:29;;;;;;;88.15;28.73;;;2.80;99.90;;;;;;4938343;29;20053;-81
2022/01/26 08:26:57;;;;;;;97.07;31.30;;;2.90;99.90;;;;;;4939379;29;20074;-81
2022/01/26 08:29:33;;;;;;;92.85;33.28;;;2.90;99.90;;;;;;4954888;29;20047;-81
2022/01/26 08:32:00;;;;;;;93.88;32.13;;;2.90;99.90;;;;;;4954022;29;20602;-81
2022/01/26 08:34:25;;;;;;;96.47;34.45;;;2.90;99.90;;;;;;4954548;29;20047;-81
2022/01/26 08:36:51;;;;;;;97.07;31.67;;;3.00;99.90;;;;;;4955248;29;20129;-79
2022/01/26 08:39:17;;;;;;;98.88;31.88;;;3.00;99.90;;;;;;4955917;29;20047;-79
2022/01/26 08:41:43;;;;;;;86.72;31.05;;;3.00;99.90;;;;;;4956017;29;20047;-79
2022/01/26 08:44:09;;;;;;;102.63;33.83;;;3.00;99.90;;;;;;4955668;29;20054;-79
2022/01/26 08:46:35;;;;;;;95.72;32.05;;;3.00;99.90;;;;;;4956093;29;20100;-79
2022/01/26 08:49:01;;;;;;;103.07;35.20;;;3.10;99.90;;;;;;4955744;29;20081;-79
2022/01/26 08:51:26;;;;;;;101.00;34.13;;;3.10;99.90;;;;;;4955510;29;20478;-79
2022/01/26 08:53:52;;;;;;;100.97;32.50;;;3.10;99.90;;;;;;4955762;29;20047;-79
2022/01/26 08:56:18;;;;;;;95.32;34.38;;;3.10;99.90;;;;;;4955844;29;20035;-79
2022/01/26 08:58:43;;;;;;;104.18;34.97;;;3.10;99.90;;;;;;4956929;28;20090;-79
2022/01/26 09:01:09;;;;;;;99.03;32.45;;;3.20;99.90;;;;;;4958146;29;20073;-79
2022/01/26 09:03:39;;;;;;;89.40;33.95;;;3.10;99.90;;;;;;4957426;29;20039;-79
2022/01/26 09:06:06;;;;;;;106.32;33.95;;;3.10;99.90;;;;;;4957941;28;20044;-79
2022/01/26 09:08:32;;;;;;;105.72;35.90;;;3.10;99.90;;;;;;4956543;28;20402;-79
2022/01/26 09:11:01;;;;;;;104.82;33.10;;;3.20;99.90;;;;;;4955751;29;20488;-79
2022/01/26 09:13:32;;;;;;;106.97;34.10;;;3.20;99.90;;;;;;4955298;29;20047;-79
2022/01/26 09:16:00;;;;;;;115.15;38.00;;;3.20;99.90;;;;;;4955572;29;20053;-79
2022/01/26 09:18:39;;;;;;;102.30;33.15;;;3.20;99.90;;;;;;4955301;29;20035;-79
2022/01/26 09:21:05;;;;;;;105.07;34.78;;;3.20;99.90;;;;;;4956156;29;20039;-79
2022/01/26 09:23:32;;;;;;;138.50;36.83;;;3.20;99.90;;;;;;4956185;29;20629;-79
2022/01/26 09:25:57;;;;;;;110.47;34.63;;;3.30;99.90;;;;;;4971692;28;20047;-79
2022/01/26 09:28:24;;;;;;;114.50;36.40;;;3.30;99.90;;;;;;4955386;29;20050;-79
2022/01/26 09:30:50;;;;;;;111.20;35.28;;;3.30;99.90;;;;;;4954917;29;20039;-80
2022/01/26 09:33:16;;;;;;;101.18;32.88;;;3.30;99.90;;;;;;4955185;28;20471;-79
2022/01/26 09:35:41;;;;;;;108.63;33.97;;;3.40;99.90;;;;;;4957864;29;20055;-79
2022/01/26 09:38:07;;;;;;;111.35;36.20;;;3.40;99.90;;;;;;4958367;29;20043;-81
2022/01/26 09:40:33;;;;;;;105.53;36.25;;;3.40;99.90;;;;;;4941908;29;20043;-81
2022/01/26 09:43:00;;;;;;;107.38;37.38;;;3.40;99.90;;;;;;4957268;29;20050;-81
2022/01/26 09:45:25;;;;;;;107.25;35.70;;;3.40;99.90;;;;;;4957082;29;20054;-81
2022/01/26 09:47:51;;;;;;;115.65;36.22;;;3.40;99.90;;;;;;4958966;28;20043;-81
2022/01/26 09:50:17;;;;;;;105.75;36.20;;;3.50;99.90;;;;;;4957674;29;20031;-81
2022/01/26 09:52:47;;;;;;;102.20;34.28;;;3.50;99.90;;;;;;4955996;29;20182;-81
2022/01/26 09:55:14;;;;;;;109.97;34.35;;;3.50;99.90;;;;;;4957034;29;20043;-81
2022/01/26 09:57:41;;;;;;;113.93;33.97;;;3.50;99.90;;;;;;4940879;29;20054;-81
2022/01/26 10:00:08;;;;;;;115.43;34.00;;;3.50;99.90;;;;;;4940933;29;20047;-81
2022/01/26 10:02:35;;;;;;;108.68;35.45;;;3.50;99.90;;;;;;4941093;29;20051;-81
2022/01/26 10:05:06;;;;;;;95.32;31.30;;;3.60;99.90;;;;;;4940725;29;20099;-81
2022/01/26 10:07:52;;;;;;;98.30;33.13;;;3.60;99.90;;;;;;4940966;29;20450;-81
2022/01/26 10:10:34;;;;;;;95.70;31.30;;;3.60;99.90;;;;;;4956404;29;20044;-81
2022/01/26 10:18:38;;;;;;;85.90;28.65;;;3.70;99.90;;;;;;4956375;29;20051;-81
2022/01/26 10:21:07;;;;;;;90.32;32.75;;;3.80;99.90;;;;;;4956252;29;20039;-81
2022/01/26 10:23:39;;;;;;;98.55;32.33;;;3.70;99.90;;;;;;4958814;29;20525;-81
2022/01/26 10:26:14;;;;;;;86.53;31.08;;;3.80;99.90;;;;;;4958248;29;20054;-81
2022/01/26 10:28:51;;;;;;;97.53;32.35;;;3.80;99.90;;;;;;4957962;29;20043;-81
2022/01/26 10:31:25;;;;;;;100.28;33.45;;;3.80;99.90;;;;;;4958956;29;20047;-81
2022/01/26 10:34:06;;;;;;;91.03;31.50;;;3.90;99.90;;;;;;4942893;29;20035;-81
2022/01/26 10:36:43;;;;;;;92.38;32.08;;;3.90;99.90;;;;;;4942671;29;20067;-81
2022/01/26 10:39:23;;;;;;;84.53;28.60;;;3.90;99.90;;;;;;4959223;29;20122;-81
2022/01/26 10:41:51;;;;;;;94.88;31.17;;;3.90;99.90;;;;;;4957312;29;20107;-81
2022/01/26 10:44:25;;;;;;;88.85;26.65;;;3.90;99.90;;;;;;4958182;28;20131;-81
2022/01/26 10:46:51;;;;;;;83.90;27.20;;;3.90;99.90;;;;;;4956791;29;20051;-81
2022/01/26 10:49:42;;;;;;;79.38;28.38;;;4.00;99.90;;;;;;4956679;29;20043;-80
2022/01/26 10:52:19;;;;;;;77.22;27.58;;;4.00;99.90;;;;;;4963687;29;20076;-81
2022/01/26 10:54:46;;;;;;;73.47;24.73;;;4.00;99.90;;;;;;4958007;29;20505;-81
2022/01/26 10:57:13;;;;;;;79.22;28.45;;;4.00;99.90;;;;;;4961818;29;20046;-80
2022/01/26 10:59:42;;;;;;;74.72;24.85;;;4.10;99.90;;;;;;4965133;29;20098;-80
2022/01/26 11:02:09;;;;;;;79.78;28.48;;;4.10;99.90;;;;;;4957351;29;20043;-81
2022/01/26 11:04:38;;;;;;;82.78;25.80;;;4.10;99.90;;;;;;4957360;29;20406;-81
2022/01/26 11:07:05;;;;;;;66.88;23.58;;;4.10;99.90;;;;;;4957226;29;20051;-81
2022/01/26 11:09:35;;;;;;;73.13;24.80;;;4.20;99.90;;;;;;4958757;29;20061;-81
2022/01/26 11:12:08;;;;;;;76.07;24.67;;;4.10;99.90;;;;;;4940629;29;20495;-81
2022/01/26 11:14:47;;;;;;;70.00;24.95;;;4.20;99.90;;;;;;4940158;29;20035;-81
2022/01/26 11:17:27;;;;;;;76.43;25.20;;;4.20;99.90;;;;;;4956249;29;20043;-78
2022/01/26 11:19:58;;;;;;;69.03;24.73;;;4.20;99.90;;;;;;4953911;29;20050;-78
2022/01/26 11:22:30;;;;;;;70.25;23.10;;;4.20;99.90;;;;;;4954868;28;20114;-78
2022/01/26 11:25:10;;;;;;;61.28;22.85;;;4.20;99.90;;;;;;4953490;29;20043;-78
2022/01/26 11:27:38;;;;;;;73.22;23.48;;;4.20;99.90;;;;;;4937490;29;20126;-78
2022/01/26 11:30:18;;;;;;;67.70;23.95;;;4.20;99.90;;;;;;4953247;29;20577;-78
2022/01/26 11:33:14;;;;;;;72.80;22.83;;;4.20;99.90;;;;;;4953538;29;20522;-79
2022/01/26 11:35:44;;;;;;;67.75;25.20;;;4.20;99.90;;;;;;4953044;29;20416;-78
2022/01/26 11:46:36;;;;;;;64.55;22.85;;;4.30;99.90;;;;;;4954745;29;20585;-79
2022/01/26 11:49:09;;;;;;;64.28;21.08;;;4.20;99.90;;;;;;4955375;29;20050;-79
2022/01/26 11:51:57;;;;;;;72.82;24.48;;;4.30;99.90;;;;;;4955392;29;20058;-79
2022/01/26 11:54:39;;;;;;;61.75;21.15;;;4.20;99.90;;;;;;4955077;29;20044;-79
2022/01/26 11:57:11;;;;;;;59.80;20.02;;;4.30;99.90;;;;;;4955935;28;20054;-81
2022/01/26 11:59:45;;;;;;;60.35;20.45;;;4.30;99.90;;;;;;4955894;29;20411;-78
2022/01/26 12:02:39;;;;;;;52.72;18.38;;;4.30;99.90;;;;;;4953006;29;20518;-78
2022/01/26 12:05:10;;;;;;;67.80;23.50;;;4.30;99.90;;;;;;4952802;29;20043;-80
2022/01/26 12:07:50;;;;;;;66.07;21.02;;;4.30;99.90;;;;;;4955908;29;20054;-81
2022/01/26 12:10:32;;;;;;;56.67;21.17;;;4.30;99.90;;;;;;4957203;29;20047;-82
2022/01/26 12:13:02;;;;;;;66.97;21.52;;;4.30;99.90;;;;;;4958155;29;20050;-81
2022/01/26 12:15:40;;;;;;;67.88;22.95;;;4.30;99.90;;;;;;4941935;29;20098;-82
2022/01/26 12:38:29;;;;;;;59.53;21.13;;;4.40;99.90;;;;;;4956554;29;20058;-81
2022/01/26 12:43:48;;;;;;;61.03;21.38;;;4.40;99.90;;;;;;4956718;29;20198;-81
2022/01/26 12:46:27;;;;;;;64.88;21.40;;;4.40;99.90;;;;;;4940343;29;20047;-81
2022/01/26 12:48:59;;;;;;;74.63;22.35;;;4.40;99.90;;;;;;4955666;29;20047;-82
2022/01/26 12:51:28;;;;;;;65.88;22.52;;;4.50;99.90;;;;;;4941050;29;20107;-81
2022/01/26 12:53:56;;;;;;;71.97;24.58;;;4.50;99.90;;;;;;4941170;29;20118;-81
2022/01/26 12:56:26;;;;;;;65.68;22.25;;;4.50;99.90;;;;;;4957763;29;20039;-81
2022/01/26 12:59:09;;;;;;;57.15;21.10;;;4.50;99.90;;;;;;4957625;29;20090;-81
2022/01/26 13:01:35;;;;;;;65.85;22.95;;;4.60;99.90;;;;;;4942051;29;20051;-82
2022/01/26 13:04:04;;;;;;;62.85;21.40;;;4.50;99.90;;;;;;4958280;29;20050;-82
2022/01/26 13:06:34;;;;;;;67.68;22.92;;;4.50;99.90;;;;;;4956167;29;20043;-82
2022/01/26 13:09:01;;;;;;;67.18;21.50;;;4.50;99.90;;;;;;4956327;28;20047;-82
2022/01/26 13:11:35;;;;;;;67.25;22.08;;;4.40;99.90;;;;;;4957000;29;20122;-82
2022/01/26 13:14:16;;;;;;;64.03;19.35;;;4.40;99.90;;;;;;4942506;29;20406;-82
2022/01/26 13:16:55;;;;;;;59.38;19.15;;;4.40;99.90;;;;;;4955925;29;20039;-79
2022/01/26 13:25:09;;;;;;;63.60;20.67;;;4.40;99.90;;;;;;4955959;29;20054;-79
2022/01/26 13:27:34;;;;;;;68.72;22.75;;;4.40;99.90;;;;;;4952776;29;20047;-79
2022/01/26 13:41:19;;;;;;;58.13;20.23;;;4.40;99.90;;;;;;4955341;29;20130;-78
2022/01/26 13:49:19;;;;;;;54.85;20.20;;;4.40;99.90;;;;;;4961655;29;20051;-79
2022/01/26 13:59:45;;;;;;;60.45;20.45;;;4.50;99.90;;;;;;4958579;29;20643;-79
2022/01/26 14:02:12;;;;;;;63.75;21.58;;;4.50;99.90;;;;;;4961186;28;20070;-79
2022/01/26 14:04:38;;;;;;;67.28;23.10;;;4.60;99.90;;;;;;4959325;29;20529;-79
2022/01/26 14:07:03;;;;;;;66.55;20.80;;;4.60;99.90;;;;;;4959925;28;20067;-79
2022/01/26 14:09:29;;;;;;;65.25;22.92;;;4.60;99.90;;;;;;4955827;29;20039;-79
2022/01/26 14:11:55;;;;;;;56.90;21.75;;;4.70;99.90;;;;;;4954765;29;20069;-78
2022/01/26 14:14:30;;;;;;;55.10;20.65;;;4.70;99.90;;;;;;4954785;29;20050;-78
2022/01/26 14:16:58;;;;;;;60.40;20.63;;;4.70;99.90;;;;;;4955787;28;20049;-79
2022/01/26 14:19:39;;;;;;;61.10;20.42;;;4.70;99.90;;;;;;4954184;28;20043;-79
2022/01/26 14:22:32;;;;;;;54.08;20.80;;;4.80;99.90;;;;;;4954949;29;20133;-78
2022/01/26 14:27:47;;;;;;;56.33;20.15;;;4.70;99.90;;;;;;4954603;29;20085;-78
2022/01/26 14:33:04;;;;;;;54.05;18.25;;;4.70;99.90;;;;;;4958406;29;20058;-79
2022/01/26 14:39:38;;;;;;;57.20;20.87;;;4.70;99.90;;;;;;4959241;29;20059;-79
2022/01/26 14:54:19;;;;;;;58.92;18.95;;;4.80;99.90;;;;;;4959511;28;20043;-79
2022/01/26 15:22:40;;;;;;;44.65;17.20;;;4.80;99.90;;;;;;4957399;29;20089;-79
2022/01/26 15:35:18;;;;;;;51.67;17.38;;;4.80;99.90;;;;;;4956647;29;20554;-79
2022/01/26 15:40:46;;;;;;;50.88;18.30;;;4.80;99.90;;;;;;4957392;29;20058;-80
2022/01/26 15:59:35;;;;;;;54.25;19.20;;;5.00;99.90;;;;;;4957344;29;20192;-80
2022/01/26 16:07:38;;;;;;;46.95;16.90;;;5.10;99.90;;;;;;4955751;29;20134;-82
2022/01/26 16:12:58;;;;;;;55.88;18.08;;;5.10;99.90;;;;;;4953612;29;20054;-82
2022/01/26 17:21:14;;;;;;;51.28;18.58;;;5.10;99.90;;;;;;4957268;29;20231;-82
2022/01/26 17:26:40;;;;;;;52.05;17.55;;;5.10;99.90;;;;;;4956617;29;20063;-82
2022/01/26 17:43:17;;;;;;;44.85;16.20;;;5.10;99.90;;;;;;4957144;29;20110;-82
2022/01/26 18:07:14;;;;;;;40.08;17.23;;;5.30;99.90;;;;;;4954886;29;20090;-79
2022/01/26 18:49:12;;;;;;;43.28;17.17;;;5.30;99.90;;;;;;4955262;29;20054;-81
2022/01/26 18:49:43;;;;;;;43.88;15.98;;;5.30;99.90;;;;;;4955028;29;20069;-81
2022/01/26 18:52:09;;;;;;;39.95;16.85;;;5.30;99.90;;;;;;4955684;29;20491;-81
2022/01/26 18:54:39;;;;;;;42.80;16.00;;;5.40;99.90;;;;;;4955701;29;20510;-81
2022/01/26 18:57:09;;;;;;;43.30;16.02;;;5.30;99.90;;;;;;4955393;29;20508;-81
2022/01/26 18:59:35;;;;;;;49.10;17.83;;;5.30;99.90;;;;;;4954858;29;20407;-81
2022/01/26 19:02:02;;;;;;;41.03;16.23;;;5.30;99.90;;;;;;4939676;29;20043;-81
2022/01/26 19:04:36;;;;;;;39.83;16.17;;;5.30;99.90;;;;;;4954931;29;20039;-79
2022/01/26 19:07:04;;;;;;;45.17;17.40;;;5.20;99.90;;;;;;4953529;28;20044;-80
2022/01/26 19:09:33;;;;;;;47.50;17.70;;;5.30;99.90;;;;;;4953859;29;20054;-79
2022/01/26 19:12:01;;;;;;;50.70;18.02;;;5.30;99.90;;;;;;4953946;29;20494;-79
2022/01/26 19:14:34;;;;;;;43.53;17.27;;;5.30;99.90;;;;;;4954260;29;20055;-79
2022/01/26 19:17:18;;;;;;;48.03;19.33;;;5.30;99.90;;;;;;4953586;29;20049;-79
2022/01/26 19:24:56;;;;;;;51.23;18.43;;;5.30;99.90;;;;;;4953800;29;20051;-80